Thursday, August 16, 2018, 12:00 AM EDT
Back to Local

KBTP, Butler, Butler County Airport/k W Scholter Field

Location: Renfrew, PA, United States Lat: 40.783
Local Time: 12:00 AM EDT ( 4:00 GMT) Lon: -79.95
Time Zone: US/Eastern Elev: 1246 ft

Show me the last for .
Show Decoded

2018-08-15 22:56 METAR KBTP 160256Z AUTO 20003KT 10SM CLR 22/20 A3009 RMK AO2 SLP186 T02220200
                 51009 =
2018-08-15 21:56 METAR KBTP 160156Z AUTO 17003KT 10SM CLR 23/20 A3008 RMK AO2 SLP184 T02330200 =
2018-08-15 20:56 METAR KBTP 160056Z AUTO 21004KT 10SM FEW045 SCT050 24/20 A3007 RMK AO2 SLP182
                 T02440200 =
2018-08-15 19:56 METAR KBTP 152356Z AUTO 00000KT 10SM CLR 24/22 A3006 RMK AO2 SLP178 T02440217
                 10283 20244 55001 =
2018-08-15 18:56 METAR KBTP 152256Z AUTO 00000KT 10SM FEW065 26/22 A3006 RMK AO2 SLP178 T02610222
                 =
2018-08-15 17:56 METAR KBTP 152156Z AUTO 00000KT 10SM CLR 27/19 A3006 RMK AO2 SLP177 T02720194 =
2018-08-15 16:56 METAR KBTP 152056Z AUTO 28004KT 10SM CLR 28/19 A3007 RMK AO2 SLP180 T02780189
                 58002 =
2018-08-15 15:56 METAR KBTP 151956Z AUTO 26004KT 10SM FEW036 SCT049 SCT060 28/19 A3007 RMK AO2
                 SLP180 T02780194 =
2018-08-15 14:56 METAR KBTP 151856Z AUTO VRB04KT 10SM BKN038 BKN055 28/21 A3008 RMK AO2 SLP182
                 T02780206 =
2018-08-15 14:25 METAR KBTP 151825Z AUTO VRB05KT 10SM SCT029 BKN038 BKN046 28/21 A3008 RMK AO2 =
2018-08-15 14:03 METAR KBTP 151803Z AUTO VRB05KT 10SM BKN029 BKN034 BKN047 27/21 A3008 RMK AO2 =
2018-08-15 13:56 METAR KBTP 151756Z AUTO 23010G14KT 10SM SCT029 BKN049 28/21 A3008 RMK AO2 SLP182
                 T02780206 10278 20183 57001 =
2018-08-15 12:56 METAR KBTP 151656Z AUTO 26008KT 10SM FEW027 SCT034 BKN060 27/21 A3008 RMK AO2
                 SLP183 T02670211 =
2018-08-15 11:56 METAR KBTP 151556Z AUTO 22007KT 10SM CLR 27/21 A3008 RMK AO2 SLP184 T02670211 =
2018-08-15 10:56 METAR KBTP 151456Z AUTO 21005KT 9SM CLR 25/21 A3008 RMK AO2 SLP184 T02500211
                 51007 =
2018-08-15 09:56 METAR KBTP 151356Z AUTO 26004KT 9SM CLR 22/20 A3008 RMK AO2 SLP184 T02170200 =
2018-08-15 08:56 METAR KBTP 151256Z AUTO 22005KT 6SM BR CLR 19/19 A3007 RMK AO2 SLP181 T01940189
                 =
2018-08-15 08:15 METAR KBTP 151215Z AUTO 25003KT 3SM BR CLR 18/18 A3006 RMK AO2 =
2018-08-15 07:56 METAR KBTP 151156Z AUTO 00000KT 2SM BR CLR 18/18 A3006 RMK AO2 SLP178 70021
                 T01830178 10183 20161 53012 =
2018-08-15 07:46 METAR KBTP 151146Z AUTO 00000KT 1 1/4SM BR CLR 18/17 A3005 RMK AO2 =
2018-08-15 07:41 METAR KBTP 151141Z AUTO 00000KT 3/4SM BR CLR 17/17 A3005 RMK AO2 RVRNO =
2018-08-15 06:56 METAR KBTP 151056Z AUTO 00000KT M1/4SM FG CLR 16/16 A3004 RMK AO2 SLP174
                 T01610161 RVRNO =
2018-08-15 05:56 METAR KBTP 150956Z AUTO 00000KT 1/4SM FG CLR 17/17 A3004 RMK AO2 SLP171
                 T01720172 RVRNO =
2018-08-15 04:56 METAR KBTP 150856Z AUTO 00000KT 1/4SM FG CLR 17/17 A3002 RMK AO2 SLP168
                 T01670167 55001 RVRNO =
2018-08-15 03:56 METAR KBTP 150756Z AUTO 00000KT 1/4SM FG CLR 17/17 A3002 RMK AO2 SLP163
                 T01720172 RVRNO =
2018-08-15 03:26 METAR KBTP 150726Z AUTO 00000KT 1/4SM FG CLR 17/17 A3001 RMK AO2 RVRNO =
2018-08-15 03:17 METAR KBTP 150717Z AUTO 00000KT 1/2SM FG CLR 18/18 A3002 RMK AO2 RVRNO =
2018-08-15 03:12 METAR KBTP 150712Z AUTO 00000KT 1SM BR CLR 18/17 A3002 RMK AO2 RVRNO =
2018-08-15 03:04 METAR KBTP 150704Z AUTO 00000KT 3/4SM BR CLR 17/17 A3002 RMK AO2 RVRNO =
2018-08-15 02:56 METAR KBTP 150656Z AUTO 00000KT 1/4SM FG CLR 17/17 A3002 RMK AO2 SLP163
                 T01720172 RVRNO =
2018-08-15 02:46 METAR KBTP 150646Z AUTO 00000KT 1/4SM FG CLR 17/17 A3002 RMK AO2 RVRNO =
2018-08-15 02:37 METAR KBTP 150637Z AUTO 00000KT 1/2SM FG CLR 18/18 A3002 RMK AO2 RVRNO =
2018-08-15 02:30 METAR KBTP 150630Z AUTO 00000KT 1 1/2SM BR CLR 18/18 A3002 RMK AO2 =
2018-08-15 02:21 METAR KBTP 150621Z AUTO 24003KT 1SM BR CLR 18/18 A3002 RMK AO2 VIS 1/4V2 RVRNO =
2018-08-15 01:56 METAR KBTP 150556Z AUTO 00000KT 1/2SM FG CLR 18/18 A3003 RMK AO2 SLP167
                 T01780178 10211 20172 53003 RVRNO =
2018-08-15 00:56 METAR KBTP 150456Z AUTO 00000KT 1/4SM FG CLR 18/17 A3002 RMK AO2 SLP165
                 T01780172 402560161 RVRNO =
2018-08-15 00:36 METAR KBTP 150436Z AUTO 00000KT 1/4SM FG CLR 18/18 A3002 RMK AO2 RVRNO =

Support USWX by starting your Amazon purchase here.